sensor_id;sensor_type;location;lat;lon;timestamp;pressure;altitude;pressure_sealevel;temperature;humidity
5595;BME280;1003;48.002;7.788;2023-12-20T00:01:35;99591.03;;;7.16;100.00
5595;BME280;1003;48.002;7.788;2023-12-20T00:04:02;99595.22;;;7.20;100.00
5595;BME280;1003;48.002;7.788;2023-12-20T00:06:30;99591.94;;;7.22;100.00
5595;BME280;1003;48.002;7.788;2023-12-20T00:08:57;99583.53;;;7.16;100.00
5595;BME280;1003;48.002;7.788;2023-12-20T00:11:24;99579.41;;;7.19;100.00
5595;BME280;1003;48.002;7.788;2023-12-20T00:13:52;99575.22;;;7.18;100.00
5595;BME280;1003;48.002;7.788;2023-12-20T00:16:19;99565.19;;;7.15;100.00
5595;BME280;1003;48.002;7.788;2023-12-20T00:18:46;99572.72;;;7.18;100.00
5595;BME280;1003;48.002;7.788;2023-12-20T00:21:13;99571.06;;;7.19;100.00
5595;BME280;1003;48.002;7.788;2023-12-20T00:23:40;99561.84;;;7.12;100.00
5595;BME280;1003;48.002;7.788;2023-12-20T00:26:07;99560.97;;;7.09;100.00
5595;BME280;1003;48.002;7.788;2023-12-20T00:28:33;99551.81;;;7.10;100.00
5595;BME280;1003;48.002;7.788;2023-12-20T00:31:02;99564.34;;;7.12;100.00
5595;BME280;1003;48.002;7.788;2023-12-20T00:33:29;99571.84;;;7.12;100.00
5595;BME280;1003;48.002;7.788;2023-12-20T00:35:56;99559.34;;;7.12;100.00
5595;BME280;1003;48.002;7.788;2023-12-20T00:38:22;99577.63;;;7.07;100.00
5595;BME280;1003;48.002;7.788;2023-12-20T00:40:49;99571.84;;;7.13;100.00
5595;BME280;1003;48.002;7.788;2023-12-20T00:43:16;99563.50;;;7.11;100.00
5595;BME280;1003;48.002;7.788;2023-12-20T00:45:43;99560.13;;;7.09;100.00
5595;BME280;1003;48.002;7.788;2023-12-20T00:48:11;99552.56;;;7.00;100.00
5595;BME280;1003;48.002;7.788;2023-12-20T00:50:38;99550.72;;;6.85;100.00
5595;BME280;1003;48.002;7.788;2023-12-20T00:53:05;99564.00;;;6.82;100.00
5595;BME280;1003;48.002;7.788;2023-12-20T00:55:32;99562.22;;;6.71;100.00
5595;BME280;1003;48.002;7.788;2023-12-20T00:57:59;99583.81;;;6.66;100.00
5595;BME280;1003;48.002;7.788;2023-12-20T01:00:26;99582.00;;;6.55;100.00
5595;BME280;1003;48.002;7.788;2023-12-20T01:02:53;99576.88;;;6.45;100.00
5595;BME280;1003;48.002;7.788;2023-12-20T01:05:21;99606.97;;;6.52;100.00
5595;BME280;1003;48.002;7.788;2023-12-20T01:07:49;99613.50;;;6.44;100.00
5595;BME280;1003;48.002;7.788;2023-12-20T01:10:16;99625.13;;;6.42;100.00
5595;BME280;1003;48.002;7.788;2023-12-20T01:12:43;99627.56;;;6.38;100.00
5595;BME280;1003;48.002;7.788;2023-12-20T01:15:10;99635.84;;;6.35;100.00
5595;BME280;1003;48.002;7.788;2023-12-20T01:17:37;99644.97;;;6.35;100.00
5595;BME280;1003;48.002;7.788;2023-12-20T01:20:06;99655.88;;;6.40;100.00
5595;BME280;1003;48.002;7.788;2023-12-20T01:22:35;99669.19;;;6.39;100.00
5595;BME280;1003;48.002;7.788;2023-12-20T01:25:02;99676.56;;;6.31;100.00
5595;BME280;1003;48.002;7.788;2023-12-20T01:27:29;99704.84;;;6.30;100.00
5595;BME280;1003;48.002;7.788;2023-12-20T01:29:56;99717.25;;;6.25;100.00
5595;BME280;1003;48.002;7.788;2023-12-20T01:32:23;99723.09;;;6.27;100.00
5595;BME280;1003;48.002;7.788;2023-12-20T01:34:50;99738.00;;;6.23;100.00
5595;BME280;1003;48.002;7.788;2023-12-20T01:37:17;99737.91;;;6.18;100.00
5595;BME280;1003;48.002;7.788;2023-12-20T01:39:45;99752.88;;;6.18;100.00
5595;BME280;1003;48.002;7.788;2023-12-20T01:42:12;99764.59;;;6.21;100.00
5595;BME280;1003;48.002;7.788;2023-12-20T01:44:39;99771.31;;;6.25;100.00
5595;BME280;1003;48.002;7.788;2023-12-20T01:47:06;99774.69;;;6.27;100.00
5595;BME280;1003;48.002;7.788;2023-12-20T01:49:34;99777.91;;;6.21;100.00
5595;BME280;1003;48.002;7.788;2023-12-20T01:52:01;99781.31;;;6.25;100.00
5595;BME280;1003;48.002;7.788;2023-12-20T01:54:29;99778.84;;;6.28;100.00
5595;BME280;1003;48.002;7.788;2023-12-20T01:56:57;99789.63;;;6.25;100.00
5595;BME280;1003;48.002;7.788;2023-12-20T01:59:25;99791.34;;;6.28;100.00
5595;BME280;1003;48.002;7.788;2023-12-20T02:01:52;99797.13;;;6.25;100.00
5595;BME280;1003;48.002;7.788;2023-12-20T02:04:20;99802.13;;;6.25;100.00
5595;BME280;1003;48.002;7.788;2023-12-20T02:06:48;99713.09;;;6.24;100.00
5595;BME280;1003;48.002;7.788;2023-12-20T02:09:19;99716.34;;;6.20;100.00
5595;BME280;1003;48.002;7.788;2023-12-20T02:11:46;99723.91;;;6.25;100.00
5595;BME280;1003;48.002;7.788;2023-12-20T02:14:14;99734.66;;;6.21;100.00
5595;BME280;1003;48.002;7.788;2023-12-20T02:16:41;99729.56;;;6.16;100.00
5595;BME280;1003;48.002;7.788;2023-12-20T02:19:13;99731.22;;;6.16;100.00
5595;BME280;1003;48.002;7.788;2023-12-20T02:21:42;99728.75;;;6.17;100.00
5595;BME280;1003;48.002;7.788;2023-12-20T02:24:09;99744.53;;;6.15;100.00
5595;BME280;1003;48.002;7.788;2023-12-20T02:26:36;99756.22;;;6.17;100.00
5595;BME280;1003;48.002;7.788;2023-12-20T02:29:03;99745.34;;;6.14;100.00
5595;BME280;1003;48.002;7.788;2023-12-20T02:31:30;99746.19;;;6.14;100.00
5595;BME280;1003;48.002;7.788;2023-12-20T02:33:57;99752.72;;;6.08;100.00
5595;BME280;1003;48.002;7.788;2023-12-20T02:36:24;99748.69;;;6.14;100.00
5595;BME280;1003;48.002;7.788;2023-12-20T02:38:52;99659.69;;;6.15;100.00
5595;BME280;1003;48.002;7.788;2023-12-20T02:41:19;99659.69;;;6.15;100.00
5595;BME280;1003;48.002;7.788;2023-12-20T02:43:46;99657.88;;;6.08;100.00
5595;BME280;1003;48.002;7.788;2023-12-20T02:46:15;99644.56;;;6.07;100.00
5595;BME280;1003;48.002;7.788;2023-12-20T02:48:43;99642.06;;;6.05;100.00
5595;BME280;1003;48.002;7.788;2023-12-20T02:51:10;99614.69;;;6.10;100.00
5595;BME280;1003;48.002;7.788;2023-12-20T02:53:36;99608.88;;;6.11;100.00
5595;BME280;1003;48.002;7.788;2023-12-20T02:56:06;99613.00;;;6.09;100.00
5595;BME280;1003;48.002;7.788;2023-12-20T02:58:32;99613.72;;;6.02;100.00
5595;BME280;1003;48.002;7.788;2023-12-20T03:00:59;99601.31;;;6.07;100.00
5595;BME280;1003;48.002;7.788;2023-12-20T03:03:26;99600.47;;;6.06;100.00
5595;BME280;1003;48.002;7.788;2023-12-20T03:05:53;99591.31;;;6.05;100.00
5595;BME280;1003;48.002;7.788;2023-12-20T03:08:20;99563.88;;;6.05;100.00
5595;BME280;1003;48.002;7.788;2023-12-20T03:10:47;99539.81;;;6.09;100.00
5595;BME280;1003;48.002;7.788;2023-12-20T03:13:15;99529.94;;;6.18;100.00
5595;BME280;1003;48.002;7.788;2023-12-20T03:15:42;99511.50;;;6.07;100.00
5595;BME280;1003;48.002;7.788;2023-12-20T03:18:09;99497.41;;;6.10;100.00
5595;BME280;1003;48.002;7.788;2023-12-20T03:20:36;99489.03;;;6.07;100.00
5595;BME280;1003;48.002;7.788;2023-12-20T03:23:04;99493.94;;;6.00;100.00
5595;BME280;1003;48.002;7.788;2023-12-20T03:25:31;99498.09;;;5.98;100.00
5595;BME280;1003;48.002;7.788;2023-12-20T03:27:57;99500.59;;;6.00;100.00
5595;BME280;1003;48.002;7.788;2023-12-20T03:30:26;99492.25;;;5.98;100.00
5595;BME280;1003;48.002;7.788;2023-12-20T03:32:53;99502.34;;;6.07;100.00
5595;BME280;1003;48.002;7.788;2023-12-20T03:35:19;99497.28;;;6.01;100.00
5595;BME280;1003;48.002;7.788;2023-12-20T03:37:46;99414.09;;;5.97;100.00
5595;BME280;1003;48.002;7.788;2023-12-20T03:40:13;99416.59;;;5.97;100.00
5595;BME280;1003;48.002;7.788;2023-12-20T03:42:40;99422.47;;;6.04;100.00
5595;BME280;1003;48.002;7.788;2023-12-20T03:45:09;99422.50;;;6.05;100.00
5595;BME280;1003;48.002;7.788;2023-12-20T03:47:37;99424.09;;;6.00;100.00
5595;BME280;1003;48.002;7.788;2023-12-20T03:50:05;99429.84;;;5.96;100.00
5595;BME280;1003;48.002;7.788;2023-12-20T03:52:32;99433.28;;;6.04;100.00
5595;BME280;1003;48.002;7.788;2023-12-20T03:54:59;99429.19;;;6.08;100.00
5595;BME280;1003;48.002;7.788;2023-12-20T03:57:26;99431.69;;;6.10;100.00
5595;BME280;1003;48.002;7.788;2023-12-20T03:59:53;99425.03;;;6.09;100.00
5595;BME280;1003;48.002;7.788;2023-12-20T04:02:20;99429.13;;;6.03;100.00
5595;BME280;1003;48.002;7.788;2023-12-20T04:04:48;99432.41;;;6.01;100.00
5595;BME280;1003;48.002;7.788;2023-12-20T04:07:15;99429.09;;;6.00;100.00
5595;BME280;1003;48.002;7.788;2023-12-20T04:09:42;99439.84;;;5.96;100.00
5595;BME280;1003;48.002;7.788;2023-12-20T04:12:09;99433.28;;;6.04;100.00
5595;BME280;1003;48.002;7.788;2023-12-20T04:14:36;99426.59;;;6.02;100.00
5595;BME280;1003;48.002;7.788;2023-12-20T04:17:03;99424.16;;;6.07;100.00
5595;BME280;1003;48.002;7.788;2023-12-20T04:19:30;99420.06;;;6.13;100.00
5595;BME280;1003;48.002;7.788;2023-12-20T04:21:58;99430.91;;;6.14;100.00
5595;BME280;1003;48.002;7.788;2023-12-20T04:24:25;99438.31;;;6.08;100.00
5595;BME280;1003;48.002;7.788;2023-12-20T04:26:52;99457.41;;;6.04;100.00
5595;BME280;1003;48.002;7.788;2023-12-20T04:29:19;99450.84;;;6.12;100.00
5595;BME280;1003;48.002;7.788;2023-12-20T04:31:46;99445.78;;;6.08;100.00
5595;BME280;1003;48.002;7.788;2023-12-20T04:34:13;99461.56;;;6.05;100.00
5595;BME280;1003;48.002;7.788;2023-12-20T04:36:40;99479.94;;;6.12;100.00
5595;BME280;1003;48.002;7.788;2023-12-20T04:39:08;99471.59;;;6.08;100.00
5595;BME280;1003;48.002;7.788;2023-12-20T04:41:35;99484.94;;;6.12;100.00
5595;BME280;1003;48.002;7.788;2023-12-20T04:44:02;99471.56;;;6.07;100.00
5595;BME280;1003;48.002;7.788;2023-12-20T04:46:29;99463.25;;;6.04;100.00
5595;BME280;1003;48.002;7.788;2023-12-20T04:48:56;99471.59;;;6.08;100.00
5595;BME280;1003;48.002;7.788;2023-12-20T04:51:23;99465.81;;;6.12;100.00
5595;BME280;1003;48.002;7.788;2023-12-20T04:53:50;99468.25;;;6.08;100.00
5595;BME280;1003;48.002;7.788;2023-12-20T04:56:18;99465.75;;;6.08;100.00
5595;BME280;1003;48.002;7.788;2023-12-20T04:58:45;99466.63;;;6.10;100.00
5595;BME280;1003;48.002;7.788;2023-12-20T05:01:13;99464.09;;;6.07;100.00
5595;BME280;1003;48.002;7.788;2023-12-20T05:03:40;99482.44;;;6.10;100.00
5595;BME280;1003;48.002;7.788;2023-12-20T05:06:07;99479.03;;;6.05;100.00
5595;BME280;1003;48.002;7.788;2023-12-20T05:08:34;99471.63;;;6.11;100.00
5595;BME280;1003;48.002;7.788;2023-12-20T05:11:02;99465.75;;;6.08;100.00
5595;BME280;1003;48.002;7.788;2023-12-20T05:13:30;99480.00;;;6.15;100.00
5595;BME280;1003;48.002;7.788;2023-12-20T05:15:57;99467.53;;;6.15;100.00
5595;BME280;1003;48.002;7.788;2023-12-20T05:18:24;99480.03;;;6.18;100.00
5595;BME280;1003;48.002;7.788;2023-12-20T05:20:52;99479.25;;;6.22;100.00
5595;BME280;1003;48.002;7.788;2023-12-20T05:23:19;99479.19;;;6.19;100.00
5595;BME280;1003;48.002;7.788;2023-12-20T05:25:46;99481.66;;;6.14;100.00
5595;BME280;1003;48.002;7.788;2023-12-20T05:28:13;99490.81;;;6.14;100.00
5595;BME280;1003;48.002;7.788;2023-12-20T05:30:41;99484.16;;;6.16;100.00
5595;BME280;1003;48.002;7.788;2023-12-20T05:33:08;99496.66;;;6.17;100.00
5595;BME280;1003;48.002;7.788;2023-12-20T05:35:35;99500.81;;;6.18;100.00
5595;BME280;1003;48.002;7.788;2023-12-20T05:38:02;99497.59;;;6.25;100.00
5595;BME280;1003;48.002;7.788;2023-12-20T05:40:28;99505.03;;;6.19;100.00
5595;BME280;1003;48.002;7.788;2023-12-20T05:42:55;99505.88;;;6.23;100.00
5595;BME280;1003;48.002;7.788;2023-12-20T05:45:22;99501.72;;;6.22;100.00
5595;BME280;1003;48.002;7.788;2023-12-20T05:47:50;99507.53;;;6.22;100.00
5595;BME280;1003;48.002;7.788;2023-12-20T05:50:17;99508.44;;;6.26;100.00
5595;BME280;1003;48.002;7.788;2023-12-20T05:52:44;99505.88;;;6.21;100.00
5595;BME280;1003;48.002;7.788;2023-12-20T05:55:11;99514.19;;;6.23;100.00
5595;BME280;1003;48.002;7.788;2023-12-20T05:57:38;99514.13;;;6.19;100.00
5595;BME280;1003;48.002;7.788;2023-12-20T06:00:07;99508.31;;;6.18;100.00
5595;BME280;1003;48.002;7.788;2023-12-20T06:02:35;99509.13;;;6.16;100.00
5595;BME280;1003;48.002;7.788;2023-12-20T06:05:04;99520.78;;;6.17;100.00
5595;BME280;1003;48.002;7.788;2023-12-20T06:07:31;99525.00;;;6.19;100.00
5595;BME280;1003;48.002;7.788;2023-12-20T06:09:58;99530.06;;;6.27;100.00
5595;BME280;1003;48.002;7.788;2023-12-20T06:12:25;99522.50;;;6.22;100.00
5595;BME280;1003;48.002;7.788;2023-12-20T06:14:54;99535.03;;;6.25;100.00
5595;BME280;1003;48.002;7.788;2023-12-20T06:17:21;99537.59;;;6.30;100.00
5595;BME280;1003;48.002;7.788;2023-12-20T06:19:48;99537.63;;;6.33;100.00
5595;BME280;1003;48.002;7.788;2023-12-20T06:22:16;99532.63;;;6.30;100.00
5595;BME280;1003;48.002;7.788;2023-12-20T06:24:43;99532.56;;;6.28;100.00
5595;BME280;1003;48.002;7.788;2023-12-20T06:27:10;99540.97;;;6.34;100.00
5595;BME280;1003;48.002;7.788;2023-12-20T06:29:37;99545.94;;;6.30;100.00
5595;BME280;1003;48.002;7.788;2023-12-20T06:32:04;99547.59;;;6.31;100.00
5595;BME280;1003;48.002;7.788;2023-12-20T06:34:31;99550.84;;;6.26;100.00
5595;BME280;1003;48.002;7.788;2023-12-20T06:36:58;99557.53;;;6.28;100.00
5595;BME280;1003;48.002;7.788;2023-12-20T06:39:27;99548.34;;;6.26;100.00
5595;BME280;1003;48.002;7.788;2023-12-20T06:41:54;99546.66;;;6.23;100.00
5595;BME280;1003;48.002;7.788;2023-12-20T06:44:21;99550.88;;;6.27;100.00
5595;BME280;1003;48.002;7.788;2023-12-20T06:46:48;99551.69;;;6.28;100.00
5595;BME280;1003;48.002;7.788;2023-12-20T06:49:15;99560.84;;;6.27;100.00
5595;BME280;1003;48.002;7.788;2023-12-20T06:51:42;99569.22;;;6.31;100.00
5595;BME280;1003;48.002;7.788;2023-12-20T06:54:09;99567.56;;;6.31;100.00
5595;BME280;1003;48.002;7.788;2023-12-20T06:56:37;99561.69;;;6.28;100.00
5595;BME280;1003;48.002;7.788;2023-12-20T06:59:04;99574.16;;;6.28;100.00
5595;BME280;1003;48.002;7.788;2023-12-20T07:01:32;99570.81;;;6.24;100.00
5595;BME280;1003;48.002;7.788;2023-12-20T07:03:59;99579.16;;;6.26;100.00
5595;BME280;1003;48.002;7.788;2023-12-20T07:06:26;99585.81;;;6.27;100.00
5595;BME280;1003;48.002;7.788;2023-12-20T07:08:53;99587.47;;;6.28;100.00
5595;BME280;1003;48.002;7.788;2023-12-20T07:11:20;99593.28;;;6.26;100.00
5595;BME280;1003;48.002;7.788;2023-12-20T07:13:48;99589.91;;;6.22;100.00
5595;BME280;1003;48.002;7.788;2023-12-20T07:16:15;99598.25;;;6.24;100.00
5595;BME280;1003;48.002;7.788;2023-12-20T07:18:42;99596.56;;;6.23;100.00
5595;BME280;1003;48.002;7.788;2023-12-20T07:21:09;99601.59;;;6.25;100.00
5595;BME280;1003;48.002;7.788;2023-12-20T07:23:36;99608.25;;;6.24;100.00
5595;BME280;1003;48.002;7.788;2023-12-20T07:26:03;99610.75;;;6.24;100.00
5595;BME280;1003;48.002;7.788;2023-12-20T07:28:31;99623.25;;;6.29;100.00
5595;BME280;1003;48.002;7.788;2023-12-20T07:31:00;99624.09;;;6.28;100.00
5595;BME280;1003;48.002;7.788;2023-12-20T07:33:27;99618.28;;;6.29;100.00
5595;BME280;1003;48.002;7.788;2023-12-20T07:35:54;99632.47;;;6.30;100.00
5595;BME280;1003;48.002;7.788;2023-12-20T07:38:20;99626.59;;;6.28;100.00
5595;BME280;1003;48.002;7.788;2023-12-20T07:40:47;99634.09;;;6.29;100.00
5595;BME280;1003;48.002;7.788;2023-12-20T07:43:14;99646.63;;;6.31;100.00
5595;BME280;1003;48.002;7.788;2023-12-20T07:45:41;99639.13;;;6.31;100.00
5595;BME280;1003;48.002;7.788;2023-12-20T07:48:10;99642.47;;;6.33;100.00
5595;BME280;1003;48.002;7.788;2023-12-20T07:50:37;99638.31;;;6.32;100.00
5595;BME280;1003;48.002;7.788;2023-12-20T07:53:04;99644.13;;;6.32;100.00
5595;BME280;1003;48.002;7.788;2023-12-20T07:55:31;99639.94;;;6.30;100.00
5595;BME280;1003;48.002;7.788;2023-12-20T07:57:58;99644.13;;;6.31;100.00
5595;BME280;1003;48.002;7.788;2023-12-20T08:00:25;99647.44;;;6.30;100.00
5595;BME280;1003;48.002;7.788;2023-12-20T08:02:51;99639.13;;;6.31;100.00
5595;BME280;1003;48.002;7.788;2023-12-20T08:05:20;99643.34;;;6.35;100.00
5595;BME280;1003;48.002;7.788;2023-12-20T08:07:47;99639.16;;;6.34;100.00
5595;BME280;1003;48.002;7.788;2023-12-20T08:10:13;99638.31;;;6.34;100.00
5595;BME280;1003;48.002;7.788;2023-12-20T08:12:40;99639.19;;;6.36;100.00
5595;BME280;1003;48.002;7.788;2023-12-20T08:15:08;99644.28;;;6.42;100.00
5595;BME280;1003;48.002;7.788;2023-12-20T08:17:35;99651.72;;;6.40;100.00
5595;BME280;1003;48.002;7.788;2023-12-20T08:20:03;99650.91;;;6.41;100.00
5595;BME280;1003;48.002;7.788;2023-12-20T08:22:31;99654.25;;;6.42;100.00
5595;BME280;1003;48.002;7.788;2023-12-20T08:24:58;99656.00;;;6.49;100.00
5595;BME280;1003;48.002;7.788;2023-12-20T08:27:25;99667.75;;;6.54;100.00
5595;BME280;1003;48.002;7.788;2023-12-20T08:29:52;99661.91;;;6.55;100.00
5595;BME280;1003;48.002;7.788;2023-12-20T08:32:19;99662.88;;;6.62;100.00
5595;BME280;1003;48.002;7.788;2023-12-20T08:34:46;99662.97;;;6.70;100.00
5595;BME280;1003;48.002;7.788;2023-12-20T08:37:13;99670.44;;;6.70;100.00
5595;BME280;1003;48.002;7.788;2023-12-20T08:39:41;99678.78;;;6.69;100.00
5595;BME280;1003;48.002;7.788;2023-12-20T08:42:09;99674.63;;;6.71;100.00
5595;BME280;1003;48.002;7.788;2023-12-20T08:44:36;99667.97;;;6.71;100.00
5595;BME280;1003;48.002;7.788;2023-12-20T08:47:04;99678.03;;;6.76;100.00
5595;BME280;1003;48.002;7.788;2023-12-20T08:49:31;99675.66;;;6.83;100.00
5595;BME280;1003;48.002;7.788;2023-12-20T08:51:58;99679.00;;;6.89;100.00
5595;BME280;1003;48.002;7.788;2023-12-20T08:54:24;99683.22;;;6.90;100.00
5595;BME280;1003;48.002;7.788;2023-12-20T08:56:53;99689.88;;;6.89;100.00
5595;BME280;1003;48.002;7.788;2023-12-20T08:59:20;99692.44;;;6.95;100.00
5595;BME280;1003;48.002;7.788;2023-12-20T09:01:47;99693.34;;;7.00;100.00
5595;BME280;1003;48.002;7.788;2023-12-20T09:04:19;99691.69;;;7.01;100.00
5595;BME280;1003;48.002;7.788;2023-12-20T09:06:46;99698.41;;;7.06;100.00
5595;BME280;1003;48.002;7.788;2023-12-20T09:09:13;99604.28;;;7.08;100.00
5595;BME280;1003;48.002;7.788;2023-12-20T09:11:40;99483.53;;;7.13;100.00
5595;BME280;1003;48.002;7.788;2023-12-20T09:14:09;99479.41;;;7.18;100.00
5595;BME280;1003;48.002;7.788;2023-12-20T09:16:36;99485.28;;;7.23;100.00
5595;BME280;1003;48.002;7.788;2023-12-20T09:19:03;99491.94;;;7.24;100.00
5595;BME280;1003;48.002;7.788;2023-12-20T09:21:30;99492.78;;;7.26;100.00
5595;BME280;1003;48.002;7.788;2023-12-20T09:23:57;99488.63;;;7.22;100.00
5595;BME280;1003;48.002;7.788;2023-12-20T09:26:24;99501.06;;;7.20;100.00
5595;BME280;1003;48.002;7.788;2023-12-20T09:28:51;99500.28;;;7.24;100.00
5595;BME280;1003;48.002;7.788;2023-12-20T09:31:19;99502.81;;;7.29;100.00
5595;BME280;1003;48.002;7.788;2023-12-20T09:33:46;99507.88;;;7.32;100.00
5595;BME280;1003;48.002;7.788;2023-12-20T09:36:13;99500.38;;;7.32;100.00
5595;BME280;1003;48.002;7.788;2023-12-20T09:38:40;99507.78;;;7.26;100.00
5595;BME280;1003;48.002;7.788;2023-12-20T09:41:07;99505.19;;;7.14;100.00
5595;BME280;1003;48.002;7.788;2023-12-20T09:43:37;99496.75;;;7.01;100.00
5595;BME280;1003;48.002;7.788;2023-12-20T09:46:06;99498.31;;;6.90;100.00
5595;BME280;1003;48.002;7.788;2023-12-20T09:48:36;99498.22;;;6.80;100.00
5595;BME280;1003;48.002;7.788;2023-12-20T09:51:04;99504.81;;;6.75;100.00
5595;BME280;1003;48.002;7.788;2023-12-20T09:53:36;99506.56;;;6.82;100.00
5595;BME280;1003;48.002;7.788;2023-12-20T09:56:06;99506.69;;;6.96;100.00
5595;BME280;1003;48.002;7.788;2023-12-20T09:58:37;99515.03;;;6.98;100.00
5595;BME280;1003;48.002;7.788;2023-12-20T10:01:05;99509.94;;;6.86;100.00
5595;BME280;1003;48.002;7.788;2023-12-20T10:03:35;99511.44;;;6.72;100.00
5595;BME280;1003;48.002;7.788;2023-12-20T10:06:03;99507.22;;;6.66;100.00
5595;BME280;1003;48.002;7.788;2023-12-20T10:08:30;99505.53;;;6.64;100.00
5595;BME280;1003;48.002;7.788;2023-12-20T10:10:58;99506.38;;;6.67;100.00
5595;BME280;1003;48.002;7.788;2023-12-20T10:13:28;99506.59;;;6.87;100.00
5595;BME280;1003;48.002;7.788;2023-12-20T10:15:55;99501.72;;;6.99;100.00
5595;BME280;1003;48.002;7.788;2023-12-20T10:18:23;99504.31;;;7.10;100.00
5595;BME280;1003;48.002;7.788;2023-12-20T10:20:51;99500.22;;;7.17;100.00
5595;BME280;1003;48.002;7.788;2023-12-20T10:23:18;99508.63;;;7.22;100.00
5595;BME280;1003;48.002;7.788;2023-12-20T10:25:56;99495.38;;;7.33;100.00
5595;BME280;1003;48.002;7.788;2023-12-20T10:28:24;99460.38;;;7.33;100.00
5595;BME280;1003;48.002;7.788;2023-12-20T10:30:54;99476.97;;;7.25;100.00
5595;BME280;1003;48.002;7.788;2023-12-20T10:33:24;99480.28;;;7.21;100.00
5595;BME280;1003;48.002;7.788;2023-12-20T10:47:18;99581.16;;;7.28;100.00
5595;BME280;1003;48.002;7.788;2023-12-20T10:49:46;99572.94;;;7.41;100.00
5595;BME280;1003;48.002;7.788;2023-12-20T10:52:13;99566.38;;;7.52;100.00
5595;BME280;1003;48.002;7.788;2023-12-20T10:54:41;99587.19;;;7.51;100.00
5595;BME280;1003;48.002;7.788;2023-12-20T10:57:08;99572.72;;;7.20;100.00
5595;BME280;1003;48.002;7.788;2023-12-20T10:59:37;99571.66;;;6.95;100.00
5595;BME280;1003;48.002;7.788;2023-12-20T11:02:05;99625.81;;;6.97;100.00
5595;BME280;1003;48.002;7.788;2023-12-20T11:04:42;99764.69;;;6.78;100.00
5595;BME280;1003;48.002;7.788;2023-12-20T11:07:21;99805.34;;;6.70;100.00
5595;BME280;1003;48.002;7.788;2023-12-20T11:09:59;99836.09;;;6.67;100.00
5595;BME280;1003;48.002;7.788;2023-12-20T11:12:38;99835.31;;;6.71;100.00
5595;BME280;1003;48.002;7.788;2023-12-20T11:15:08;99825.47;;;6.79;100.00
5595;BME280;1003;48.002;7.788;2023-12-20T11:17:39;99820.59;;;6.88;100.00
5595;BME280;1003;48.002;7.788;2023-12-20T11:20:11;99798.94;;;6.89;100.00
5595;BME280;1003;48.002;7.788;2023-12-20T11:22:54;99797.56;;;7.07;100.00
5595;BME280;1003;48.002;7.788;2023-12-20T11:25:47;99786.19;;;7.28;100.00
5595;BME280;1003;48.002;7.788;2023-12-20T11:28:15;99778.81;;;7.39;100.00
5595;BME280;1003;48.002;7.788;2023-12-20T11:30:47;99764.78;;;7.50;100.00
5595;BME280;1003;48.002;7.788;2023-12-20T11:33:21;99736.72;;;7.75;100.00
5595;BME280;1003;48.002;7.788;2023-12-20T11:36:01;99722.78;;;8.02;100.00
5595;BME280;1003;48.002;7.788;2023-12-20T11:38:36;99713.47;;;7.87;100.00
5595;BME280;1003;48.002;7.788;2023-12-20T11:41:06;99699.38;;;8.00;100.00
5595;BME280;1003;48.002;7.788;2023-12-20T11:43:36;99696.25;;;8.28;100.00
5595;BME280;1003;48.002;7.788;2023-12-20T11:46:04;99677.84;;;8.20;100.00
5595;BME280;1003;48.002;7.788;2023-12-20T11:48:32;99670.34;;;8.22;100.00
5595;BME280;1003;48.002;7.788;2023-12-20T11:51:01;99661.16;;;8.19;100.00
5595;BME280;1003;48.002;7.788;2023-12-20T11:53:29;99653.81;;;8.40;100.00
5595;BME280;1003;48.002;7.788;2023-12-20T11:55:56;99650.53;;;8.46;100.00
5595;BME280;1003;48.002;7.788;2023-12-20T11:58:23;99645.50;;;8.49;100.00
5595;BME280;1003;48.002;7.788;2023-12-20T12:00:51;99639.63;;;8.41;100.00
5595;BME280;1003;48.002;7.788;2023-12-20T12:03:21;99629.56;;;8.35;100.00
5595;BME280;1003;48.002;7.788;2023-12-20T12:05:50;99632.13;;;8.39;100.00
5595;BME280;1003;48.002;7.788;2023-12-20T12:08:18;99632.22;;;8.59;100.00
5595;BME280;1003;48.002;7.788;2023-12-20T12:10:45;99628.88;;;8.56;100.00
5595;BME280;1003;48.002;7.788;2023-12-20T12:13:12;99629.63;;;8.44;100.00
5595;BME280;1003;48.002;7.788;2023-12-20T12:15:41;99615.34;;;8.35;100.00
5595;BME280;1003;48.002;7.788;2023-12-20T12:18:10;99610.41;;;8.41;100.00
5595;BME280;1003;48.002;7.788;2023-12-20T12:20:38;99625.41;;;8.37;100.00
5595;BME280;1003;48.002;7.788;2023-12-20T12:23:06;99614.56;;;8.38;100.00
5595;BME280;1003;48.002;7.788;2023-12-20T12:25:36;99616.22;;;8.36;100.00
5595;BME280;1003;48.002;7.788;2023-12-20T12:35:35;99623.13;;;8.86;100.00
5595;BME280;1003;48.002;7.788;2023-12-20T12:38:02;99619.84;;;8.98;100.00
5595;BME280;1003;48.002;7.788;2023-12-20T12:40:29;99622.28;;;8.82;100.00
5595;BME280;1003;48.002;7.788;2023-12-20T12:42:57;99626.41;;;8.66;100.00
5595;BME280;1003;48.002;7.788;2023-12-20T12:45:24;99628.91;;;8.63;100.00
5595;BME280;1003;48.002;7.788;2023-12-20T12:47:52;99617.13;;;8.47;100.00
5595;BME280;1003;48.002;7.788;2023-12-20T12:50:20;99622.06;;;8.36;100.00
5595;BME280;1003;48.002;7.788;2023-12-20T12:52:47;99620.25;;;8.23;100.00
5595;BME280;1003;48.002;7.788;2023-12-20T12:55:14;99620.97;;;8.01;100.00
5595;BME280;1003;48.002;7.788;2023-12-20T12:57:41;99617.63;;;8.00;100.00
5595;BME280;1003;48.002;7.788;2023-12-20T13:00:12;99620.09;;;7.96;100.00
5595;BME280;1003;48.002;7.788;2023-12-20T13:02:39;99610.91;;;7.93;100.00
5595;BME280;1003;48.002;7.788;2023-12-20T13:05:08;99610.81;;;7.81;100.00
5595;BME280;1003;48.002;7.788;2023-12-20T13:07:35;99607.44;;;7.76;100.00
5595;BME280;1003;48.002;7.788;2023-12-20T13:10:03;99608.28;;;7.76;100.00
5595;BME280;1003;48.002;7.788;2023-12-20T13:12:31;99614.91;;;7.74;100.00
5595;BME280;1003;48.002;7.788;2023-12-20T13:14:58;99612.41;;;7.70;100.00
5595;BME280;1003;48.002;7.788;2023-12-20T13:17:26;99608.16;;;7.64;100.00
5595;BME280;1003;48.002;7.788;2023-12-20T13:19:53;99612.31;;;7.63;100.00
5595;BME280;1003;48.002;7.788;2023-12-20T13:22:20;99612.31;;;7.60;100.00
5595;BME280;1003;48.002;7.788;2023-12-20T13:24:47;99615.69;;;7.66;100.00
5595;BME280;1003;48.002;7.788;2023-12-20T13:27:14;99614.06;;;7.71;100.00
5595;BME280;1003;48.002;7.788;2023-12-20T13:29:41;99611.63;;;7.80;100.00
5595;BME280;1003;48.002;7.788;2023-12-20T13:32:08;99601.63;;;7.83;100.00
5595;BME280;1003;48.002;7.788;2023-12-20T13:34:36;99611.72;;;7.92;100.00
5595;BME280;1003;48.002;7.788;2023-12-20T13:37:04;99607.63;;;8.03;100.00
5595;BME280;1003;48.002;7.788;2023-12-20T13:39:31;99598.47;;;8.04;100.00
5595;BME280;1003;48.002;7.788;2023-12-20T13:41:58;99607.66;;;8.06;100.00
5595;BME280;1003;48.002;7.788;2023-12-20T13:44:25;99605.22;;;8.15;100.00